Skip Navigation Links
NOAA logo - Click to go to the NOAA homepage
NOAA's National Weather Service
Alaska Aviation Weather Unit
  NWS logo - Click to go to the NWS homepage
Left Navbar Graphic     17 AKDT = 01 GMT

   
NOAA is celebrating 200 years of science, service, and stewardship. Visit the NOAA 200th celebration Web site to learn more.
USA.gov is the U.S. Government's official Web portal to all Federal, state and local government Web resources and services.
Facebook
NWS on Facebook

Important Change Regarding the AAWU Web Presence

 

Over the last several months, the AAWU has been working to navigate its webpages to a nationally supported server. Security, as well as other needs, have necessitated the change.  In the process, we have made an effort to enhance the functionality of our website, as well as some of our products. As of June 27, 2017, aawu.arh.noaa.gov will be discontinued. The new AAWU web address is weather.gov/aawu. It is now live and will run in-parallel with the old site until it is discontinued. Please send any feedback or questions regarding the new webpages to nws.ar.aawu.webauthors@noaa.gov.  Thank you for your patience during this time of transition.
AAWU Home :: Display TAF Add Bookmark
TAF CYDA 252338Z 2600/2603 VRB03KT P6SM BKN050 OVC080 TEMPO 2600/2603
     P6SM -SHRA
    RMK NXT FCST WILL BE ISSUED AT 261445Z=

METAR CYDA 251900Z 25004KT 20SM -RA SCT021 BKN026 OVC089 OVC110 OVC210 12/10 A2995 RMK NS4SC2AS2AC1CI1 AC TR CI TR SLP157= SPECI CYDA 251920Z 23004KT 210V280 20SM BKN042 BKN053 OVC089 12/10 A2994 RMK SC5CU1AS2 SLP154= METAR CYDA 252000Z 24006KT 210V280 20SM -RA FEW015 BKN030 BKN045TCU OVC210 13/09 A2994 RMK SF2SC3TCU1CI2 SLP153= METAR CYDA 252100Z 24004KT 20SM -RA SCT015 BKN035 OVC090 12/10 A2993 RMK SF3SC4AS1 SLP152= METAR CYDA 252200Z 02002KT 20SM -RA FEW015 FEW025 BKN035 OVC090 14/09 A2992 RMK SF1CU1SC4AS2 SLP146 DENSITY ALT 1500FT= SPECI CYDA 252236Z 25007KT 20SM FEW025TCU BKN040 BKN090 13/10 A2991 RMK TCU2SC3AS2 SLP144 DENSITY ALT 1300FT= METAR CYDA 252300Z 25005KT 210V280 20SM FEW030TCU BKN045 BKN090 14/10 A2991 RMK TCU2SC3AS2 SLP144 DENSITY ALT 1400FT= METAR CYDA 260000Z 25007KT 200V270 20SM FEW025 BKN045TCU BKN230 14/10 A2989 RMK CU2TCU3CI2 SLP138 DENSITY ALT 1400FT= METAR CYDA 260100Z 22003KT 130V290 20SM FEW014 SCT045TCU BKN055CB BKN230 14/10 A2988 RMK SF1TCU2CB2CI1 SLP134 DENSITY ALT 1500FT=
 Alaska TAF Map

NOAA's National Weather Service
Alaska Aviation Weather Unit
6930 Sand Lake Road
Anchorage, AK 99502-1845
Disclaimer
Credits
Glossary
Privacy Policy
About Us
Career Opportunities
Contact AAWU Internet Services Site last modified: April, 17th 2012